Time;durP1;ratioP1;P1;durP2;ratioP2;P2;SDS_P1;SDS_P2;PMS_P1;PMS_P2;Temp;Humidity;BMP_temperature;BMP_pressure;BME280_temperature;BME280_humidity;BME280_pressure;Samples;Min_cycle;Max_cycle;Signal;HPM_P1;HPM_P2
2023/08/10 00:01:09;;;;;;;;;;;24.60;51.40;;;;;;5094192;28;19924;-56
2023/08/10 00:03:36;;;;;;;;;;;24.60;51.40;;;;;;5092289;28;19931;-57
2023/08/10 00:06:03;;;;;;;;;;;24.60;51.40;;;;;;5092471;28;20288;-56
2023/08/10 00:08:30;;;;;;;;;;;24.60;51.40;;;;;;5093522;28;19924;-56
2023/08/10 00:10:57;;;;;;;;;;;24.60;51.40;;;;;;5092038;28;20372;-57
2023/08/10 00:13:24;;;;;;;;;;;24.60;51.40;;;;;;5092453;28;19989;-56
2023/08/10 00:15:51;;;;;;;;;;;24.60;51.40;;;;;;5091894;28;20324;-55
2023/08/10 00:18:19;;;;;;;;;;;24.60;51.40;;;;;;5093473;28;19924;-56
2023/08/10 00:20:46;;;;;;;;;;;24.60;51.40;;;;;;5093103;28;20405;-56
2023/08/10 00:23:13;;;;;;;;;;;24.60;51.40;;;;;;5093168;28;19924;-56
2023/08/10 00:25:40;;;;;;;;;;;24.60;51.40;;;;;;5092812;28;19928;-57
2023/08/10 00:28:07;;;;;;;;;;;24.60;51.40;;;;;;5092246;28;20365;-56
2023/08/10 00:30:34;;;;;;;;;;;24.60;51.40;;;;;;5091644;28;20011;-55
2023/08/10 00:33:01;;;;;;;;;;;24.60;51.40;;;;;;5093214;28;19924;-56
2023/08/10 00:35:28;;;;;;;;;;;24.60;51.40;;;;;;5092185;28;20368;-56
2023/08/10 00:37:55;;;;;;;;;;;24.60;51.40;;;;;;5093044;28;19979;-56
2023/08/10 00:40:22;;;;;;;;;;;24.60;51.40;;;;;;5092739;28;20020;-56
2023/08/10 00:42:49;;;;;;;;;;;24.60;51.40;;;;;;5092308;28;19968;-56
2023/08/10 00:45:16;;;;;;;;;;;24.60;51.40;;;;;;5092705;28;19928;-56
2023/08/10 00:47:43;;;;;;;;;;;24.60;51.50;;;;;;5093262;28;20331;-56
2023/08/10 00:50:10;;;;;;;;;;;24.60;51.40;;;;;;5092808;28;20296;-56
2023/08/10 00:52:37;;;;;;;;;;;24.60;51.40;;;;;;5092235;28;19964;-56
2023/08/10 00:55:04;;;;;;;;;;;24.60;51.40;;;;;;5092363;28;19930;-56
2023/08/10 00:57:31;;;;;;;;;;;24.70;51.40;;;;;;5093125;28;20349;-56
2023/08/10 00:59:58;;;;;;;;;;;24.60;51.40;;;;;;5092347;28;19947;-55
2023/08/10 01:02:25;;;;;;;;;;;24.60;51.40;;;;;;5091377;28;19924;-56
2023/08/10 01:04:52;;;;;;;;;;;24.60;51.40;;;;;;5093065;28;19924;-56
2023/08/10 01:07:24;;;;;;;;;;;24.60;51.40;;;;;;5093032;28;19930;-56
2023/08/10 01:09:57;;;;;;;;;;;24.60;51.40;;;;;;5092544;28;20013;-57
2023/08/10 01:12:33;;;;;;;;;;;24.60;51.30;;;;;;5092361;28;20034;-57
2023/08/10 01:15:13;;;;;;;;;;;24.60;51.30;;;;;;5091837;28;20456;-56
2023/08/10 01:17:43;;;;;;;;;;;24.60;51.30;;;;;;5093213;28;19924;-55
2023/08/10 01:20:12;;;;;;;;;;;24.60;51.30;;;;;;5093427;28;19931;-56
2023/08/10 01:22:48;;;;;;;;;;;24.70;51.40;;;;;;5092063;28;19924;-56
2023/08/10 01:25:15;;;;;;;;;;;24.70;51.40;;;;;;5092873;28;19924;-56
2023/08/10 01:27:43;;;;;;;;;;;24.70;51.30;;;;;;5092087;28;19924;-56
2023/08/10 01:30:11;;;;;;;;;;;24.70;51.40;;;;;;5091240;28;19928;-56
2023/08/10 01:32:38;;;;;;;;;;;24.70;51.40;;;;;;5091432;28;20023;-56
2023/08/10 01:35:05;;;;;;;;;;;24.60;51.30;;;;;;5091219;28;19927;-54
2023/08/10 01:37:33;;;;;;;;;;;24.60;51.40;;;;;;5092422;28;19924;-56
2023/08/10 01:40:00;;;;;;;;;;;24.60;51.40;;;;;;5091642;28;19924;-56
2023/08/10 01:42:28;;;;;;;;;;;24.60;51.40;;;;;;5094944;28;20015;-55
2023/08/10 01:44:55;;;;;;;;;;;24.60;51.40;;;;;;5095961;28;19979;-55
2023/08/10 01:47:42;;;;;;;;;;;24.60;51.40;;;;;;5096217;28;20349;-56
2023/08/10 01:50:09;;;;;;;;;;;24.60;51.50;;;;;;5095484;28;19924;-56
2023/08/10 01:52:38;;;;;;;;;;;24.60;51.50;;;;;;5094788;28;19931;-56
2023/08/10 01:55:07;;;;;;;;;;;24.60;51.50;;;;;;5094408;28;19924;-56
2023/08/10 01:57:34;;;;;;;;;;;24.60;51.50;;;;;;5095538;28;20018;-55
2023/08/10 02:00:01;;;;;;;;;;;24.60;51.50;;;;;;5095506;28;19927;-56
2023/08/10 02:02:28;;;;;;;;;;;24.60;51.50;;;;;;5095472;28;19950;-56
2023/08/10 02:04:55;;;;;;;;;;;24.60;51.50;;;;;;5095529;28;19928;-57
2023/08/10 02:07:22;;;;;;;;;;;24.60;51.50;;;;;;5096152;28;19970;-56
2023/08/10 02:09:49;;;;;;;;;;;24.60;51.50;;;;;;5095841;28;20392;-56
2023/08/10 02:12:17;;;;;;;;;;;24.60;51.50;;;;;;5096258;28;20010;-56
2023/08/10 02:14:44;;;;;;;;;;;24.60;51.50;;;;;;5096103;28;19938;-56
2023/08/10 02:17:10;;;;;;;;;;;24.60;51.50;;;;;;5096084;28;19947;-56
2023/08/10 02:19:37;;;;;;;;;;;24.50;51.50;;;;;;5095185;28;19963;-56
2023/08/10 02:22:04;;;;;;;;;;;24.60;51.50;;;;;;5096242;28;19924;-57
2023/08/10 02:24:32;;;;;;;;;;;24.60;51.60;;;;;;5095554;28;19947;-56
2023/08/10 02:26:59;;;;;;;;;;;24.60;51.60;;;;;;5096071;28;19985;-56
2023/08/10 02:29:26;;;;;;;;;;;24.50;51.50;;;;;;5094583;28;19971;-57
2023/08/10 02:31:53;;;;;;;;;;;24.50;51.50;;;;;;5095624;28;19924;-56
2023/08/10 02:34:20;;;;;;;;;;;24.50;51.50;;;;;;5095196;28;20331;-56
2023/08/10 02:36:47;;;;;;;;;;;24.50;51.50;;;;;;5095423;28;20269;-58
2023/08/10 02:39:14;;;;;;;;;;;24.50;51.50;;;;;;5095767;28;20349;-58
2023/08/10 02:41:41;;;;;;;;;;;24.50;51.50;;;;;;5095520;28;19930;-56
2023/08/10 02:44:08;;;;;;;;;;;24.50;51.50;;;;;;5095143;28;20015;-56
2023/08/10 02:46:36;;;;;;;;;;;24.60;51.60;;;;;;5095686;28;20325;-56
2023/08/10 02:49:03;;;;;;;;;;;24.50;51.50;;;;;;5095237;28;19975;-56
2023/08/10 02:51:30;;;;;;;;;;;24.60;51.60;;;;;;5094811;28;20027;-56
2023/08/10 02:53:56;;;;;;;;;;;24.50;51.50;;;;;;5095121;28;19928;-54
2023/08/10 02:56:23;;;;;;;;;;;24.50;51.50;;;;;;5094684;28;19966;-56
2023/08/10 02:58:50;;;;;;;;;;;24.50;51.60;;;;;;5094185;28;20319;-56
2023/08/10 03:01:17;;;;;;;;;;;24.50;51.60;;;;;;5093900;28;19930;-56
2023/08/10 03:03:45;;;;;;;;;;;24.60;51.60;;;;;;5094494;28;19978;-56
2023/08/10 03:06:12;;;;;;;;;;;24.50;51.60;;;;;;5095023;28;19971;-56
2023/08/10 03:08:39;;;;;;;;;;;24.50;51.60;;;;;;5094860;28;19924;-55
2023/08/10 03:11:06;;;;;;;;;;;24.50;51.50;;;;;;5094709;28;20435;-56
2023/08/10 03:13:33;;;;;;;;;;;24.50;51.50;;;;;;5094739;28;19924;-56
2023/08/10 03:16:00;;;;;;;;;;;24.50;51.50;;;;;;5094883;28;20324;-56
2023/08/10 03:18:27;;;;;;;;;;;24.60;51.60;;;;;;5093998;28;19978;-56
2023/08/10 03:20:54;;;;;;;;;;;24.50;51.50;;;;;;5093868;28;19965;-56
2023/08/10 03:23:21;;;;;;;;;;;24.60;51.60;;;;;;5093584;28;19924;-56
2023/08/10 03:25:48;;;;;;;;;;;24.60;51.50;;;;;;5094404;28;19977;-56
2023/08/10 03:28:15;;;;;;;;;;;24.60;51.60;;;;;;5094248;28;19924;-56
2023/08/10 03:30:42;;;;;;;;;;;24.60;51.50;;;;;;5093211;28;19924;-56
2023/08/10 03:33:09;;;;;;;;;;;24.60;51.50;;;;;;5092946;28;19928;-57
2023/08/10 03:35:36;;;;;;;;;;;24.60;51.50;;;;;;5093905;28;19928;-56
2023/08/10 03:38:03;;;;;;;;;;;24.60;51.50;;;;;;5094037;28;20276;-56
2023/08/10 03:40:30;;;;;;;;;;;24.60;51.50;;;;;;5092542;28;19946;-56
2023/08/10 03:42:57;;;;;;;;;;;24.60;51.50;;;;;;5093173;28;19975;-56
2023/08/10 03:45:24;;;;;;;;;;;24.60;51.50;;;;;;5092893;28;19978;-56
2023/08/10 03:47:51;;;;;;;;;;;24.60;51.50;;;;;;5093494;28;19971;-56
2023/08/10 03:50:18;;;;;;;;;;;24.60;51.50;;;;;;5093275;28;19924;-56
2023/08/10 03:52:45;;;;;;;;;;;24.60;51.50;;;;;;5094085;28;19924;-56
2023/08/10 03:55:14;;;;;;;;;;;24.60;51.50;;;;;;5093589;28;19924;-56
2023/08/10 03:57:41;;;;;;;;;;;24.60;51.60;;;;;;5093298;28;20019;-57
2023/08/10 04:00:10;;;;;;;;;;;24.60;51.50;;;;;;5092885;28;19985;-56
2023/08/10 04:02:37;;;;;;;;;;;24.60;51.60;;;;;;5093851;28;20362;-56
2023/08/10 04:05:06;;;;;;;;;;;24.60;51.50;;;;;;5077834;28;19924;-56
2023/08/10 04:07:33;;;;;;;;;;;24.60;51.50;;;;;;5072105;28;19924;-56
2023/08/10 04:10:00;;;;;;;;;;;24.60;51.50;;;;;;5072925;28;19986;-55
2023/08/10 04:12:27;;;;;;;;;;;24.60;51.50;;;;;;5071938;28;19944;-56
2023/08/10 04:14:54;;;;;;;;;;;24.60;51.50;;;;;;5072398;28;20281;-56
2023/08/10 04:17:21;;;;;;;;;;;24.60;51.50;;;;;;5073075;28;19964;-56
2023/08/10 04:19:48;;;;;;;;;;;24.60;51.50;;;;;;5072840;28;19970;-56
2023/08/10 04:22:15;;;;;;;;;;;24.60;51.40;;;;;;5072586;28;20392;-58
2023/08/10 04:24:42;;;;;;;;;;;24.60;51.40;;;;;;5071899;28;19978;-56
2023/08/10 04:27:09;;;;;;;;;;;24.60;51.40;;;;;;5073406;28;19931;-56
2023/08/10 04:29:37;;;;;;;;;;;24.60;51.40;;;;;;5071752;28;19928;-56
2023/08/10 04:32:04;;;;;;;;;;;24.60;51.30;;;;;;5072885;28;20434;-56
2023/08/10 04:34:32;;;;;;;;;;;24.70;51.30;;;;;;5072522;28;19924;-56
2023/08/10 04:36:59;;;;;;;;;;;24.70;51.30;;;;;;5071386;28;19932;-56
2023/08/10 04:39:27;;;;;;;;;;;24.60;51.40;;;;;;5072130;28;20462;-56
2023/08/10 04:41:53;;;;;;;;;;;24.50;51.50;;;;;;5072970;28;19947;-56
2023/08/10 04:44:20;;;;;;;;;;;24.40;51.80;;;;;;5082495;28;20003;-57
2023/08/10 04:46:47;;;;;;;;;;;24.20;52.20;;;;;;5083215;28;19935;-56
2023/08/10 04:49:14;;;;;;;;;;;23.90;52.50;;;;;;5074581;28;20385;-55
2023/08/10 04:51:41;;;;;;;;;;;23.60;51.40;;;;;;5088284;28;20441;-56
2023/08/10 04:54:08;;;;;;;;;;;23.30;50.20;;;;;;5092700;28;20364;-55
2023/08/10 04:56:36;;;;;;;;;;;23.10;49.40;;;;;;5092083;28;19946;-54
2023/08/10 04:59:03;;;;;;;;;;;22.80;48.90;;;;;;5092829;28;19959;-56
2023/08/10 05:01:30;;;;;;;;;;;22.50;48.10;;;;;;5092861;28;20380;-56
2023/08/10 05:03:57;;;;;;;;;;;22.20;48.70;;;;;;5074307;28;20023;-56
2023/08/10 05:06:24;;;;;;;;;;;21.90;47.90;;;;;;5072716;28;19978;-55
2023/08/10 05:08:51;;;;;;;;;;;21.60;48.70;;;;;;5072634;28;19932;-57
2023/08/10 05:11:18;;;;;;;;;;;21.30;48.00;;;;;;5072217;28;19972;-55
2023/08/10 05:13:46;;;;;;;;;;;21.10;48.90;;;;;;5072709;28;19928;-54
2023/08/10 05:16:13;;;;;;;;;;;20.80;50.00;;;;;;5073437;28;19931;-56
2023/08/10 05:18:41;;;;;;;;;;;20.60;50.40;;;;;;5062730;28;19927;-58
2023/08/10 05:21:09;;;;;;;;;;;20.50;49.60;;;;;;5093816;28;19934;-54
2023/08/10 05:23:37;;;;;;;;;;;20.30;50.60;;;;;;5092935;28;19928;-56
2023/08/10 05:26:05;;;;;;;;;;;20.10;50.60;;;;;;5084301;28;19925;-56
2023/08/10 05:28:32;;;;;;;;;;;20.00;50.40;;;;;;5084381;28;19924;-57
2023/08/10 05:31:00;;;;;;;;;;;19.80;51.30;;;;;;5070806;28;19967;-57
2023/08/10 05:33:27;;;;;;;;;;;19.70;51.80;;;;;;5076931;28;20022;-57
2023/08/10 05:35:54;;;;;;;;;;;19.60;51.00;;;;;;5074335;28;19935;-57
2023/08/10 05:38:21;;;;;;;;;;;19.50;51.90;;;;;;5073678;28;21562;-57
2023/08/10 05:40:48;;;;;;;;;;;19.50;52.50;;;;;;5074534;28;19943;-57
2023/08/10 05:43:15;;;;;;;;;;;19.40;52.50;;;;;;5081713;28;19978;-57
2023/08/10 05:45:42;;;;;;;;;;;19.30;51.80;;;;;;5080287;28;19976;-57
2023/08/10 05:48:10;;;;;;;;;;;19.20;52.30;;;;;;5075337;28;19928;-55
2023/08/10 05:50:38;;;;;;;;;;;19.10;52.00;;;;;;5080242;28;19932;-56
2023/08/10 05:53:06;;;;;;;;;;;19.00;52.20;;;;;;5075948;28;20022;-55
2023/08/10 05:55:34;;;;;;;;;;;18.90;53.00;;;;;;5076753;28;19970;-55
2023/08/10 05:58:01;;;;;;;;;;;18.90;53.70;;;;;;5072317;28;20019;-57
2023/08/10 06:00:28;;;;;;;;;;;18.90;52.80;;;;;;5071408;28;19932;-52
2023/08/10 06:02:55;;;;;;;;;;;18.80;53.00;;;;;;5073767;28;20373;-57
2023/08/10 06:05:23;;;;;;;;;;;18.70;54.00;;;;;;5073109;28;19999;-57
2023/08/10 06:07:50;;;;;;;;;;;18.70;53.50;;;;;;5072529;28;20933;-55
2023/08/10 06:10:18;;;;;;;;;;;18.70;53.20;;;;;;5074802;28;19990;-55
2023/08/10 06:12:45;;;;;;;;;;;18.70;54.20;;;;;;5068916;28;19927;-57
2023/08/10 06:15:13;;;;;;;;;;;18.70;53.70;;;;;;5074425;28;19929;-60
2023/08/10 06:17:40;;;;;;;;;;;18.60;53.60;;;;;;5068846;28;20054;-58
2023/08/10 06:20:09;;;;;;;;;;;18.60;54.10;;;;;;5073836;28;19934;-59
2023/08/10 06:22:38;;;;;;;;;;;18.60;54.60;;;;;;5070634;28;19932;-60
2023/08/10 06:25:05;;;;;;;;;;;18.50;53.40;;;;;;5079977;28;20011;-60
2023/08/10 06:27:33;;;;;;;;;;;18.50;53.70;;;;;;5074935;28;20007;-59
2023/08/10 06:30:01;;;;;;;;;;;18.40;54.90;;;;;;5079591;28;19940;-59
2023/08/10 06:32:28;;;;;;;;;;;18.30;55.30;;;;;;5077698;28;19932;-59
2023/08/10 06:34:55;;;;;;;;;;;18.30;54.10;;;;;;5081791;28;19933;-60
2023/08/10 06:37:22;;;;;;;;;;;18.30;55.00;;;;;;5075903;28;19992;-59
2023/08/10 06:39:50;;;;;;;;;;;18.20;55.10;;;;;;5075488;28;19975;-60
2023/08/10 06:42:18;;;;;;;;;;;18.30;54.40;;;;;;5073137;28;19936;-59
2023/08/10 06:44:45;;;;;;;;;;;18.20;54.80;;;;;;5076115;28;19924;-59
2023/08/10 06:47:12;;;;;;;;;;;18.20;55.50;;;;;;5069689;28;19932;-59
2023/08/10 06:49:41;;;;;;;;;;;18.20;54.90;;;;;;5069329;28;20019;-59
2023/08/10 06:52:09;;;;;;;;;;;18.20;53.60;;;;;;5069174;28;20025;-57
2023/08/10 06:54:37;;;;;;;;;;;18.20;54.50;;;;;;5075013;28;20439;-58
2023/08/10 06:57:04;;;;;;;;;;;18.20;55.10;;;;;;5071838;28;19933;-57
2023/08/10 06:59:32;;;;;;;;;;;18.30;54.20;;;;;;5079048;28;19932;-62
2023/08/10 07:02:19;;;;;;;;;;;18.30;54.60;;;;;;5075079;28;19924;-58
2023/08/10 07:04:47;;;;;;;;;;;18.30;55.60;;;;;;5071963;28;19932;-59
2023/08/10 07:07:14;;;;;;;;;;;18.30;55.10;;;;;;5075570;28;20021;-58
2023/08/10 07:09:42;;;;;;;;;;;18.40;54.70;;;;;;5075999;28;20054;-58
2023/08/10 07:12:09;;;;;;;;;;;18.40;56.90;;;;;;5077403;28;19924;-59
2023/08/10 07:14:37;;;;;;;;;;;18.30;58.20;;;;;;5067445;28;20481;-58
2023/08/10 07:17:04;;;;;;;;;;;18.30;57.10;;;;;;5073152;28;20416;-58
2023/08/10 07:19:32;;;;;;;;;;;18.30;57.40;;;;;;5075719;28;20400;-59
2023/08/10 07:22:00;;;;;;;;;;;18.30;58.00;;;;;;5074738;28;20023;-59
2023/08/10 07:24:27;;;;;;;;;;;18.30;58.00;;;;;;5071582;28;19968;-59
2023/08/10 07:26:56;;;;;;;;;;;18.30;57.20;;;;;;5075290;28;19974;-59
2023/08/10 07:29:24;;;;;;;;;;;18.30;57.40;;;;;;5065624;28;19960;-55
2023/08/10 07:31:51;;;;;;;;;;;18.30;55.80;;;;;;5075091;28;19954;-58
2023/08/10 07:34:18;;;;;;;;;;;18.30;57.80;;;;;;5075412;28;19954;-57
2023/08/10 07:36:45;;;;;;;;;;;18.30;55.80;;;;;;5071508;28;19956;-58
2023/08/10 07:39:13;;;;;;;;;;;18.30;57.60;;;;;;5071865;28;19937;-57
2023/08/10 07:41:41;;;;;;;;;;;18.30;57.20;;;;;;5075571;28;19925;-58
2023/08/10 07:44:08;;;;;;;;;;;18.30;58.10;;;;;;5063784;28;19928;-58
2023/08/10 07:46:35;;;;;;;;;;;18.30;56.40;;;;;;5070423;28;19924;-58
2023/08/10 07:49:02;;;;;;;;;;;18.20;57.80;;;;;;5071849;28;20020;-58
2023/08/10 07:51:29;;;;;;;;;;;18.20;58.40;;;;;;5079490;28;19932;-59
2023/08/10 07:53:57;;;;;;;;;;;18.30;57.20;;;;;;5074215;28;19975;-59
2023/08/10 07:56:24;;;;;;;;;;;18.30;58.20;;;;;;5071770;28;19951;-56
2023/08/10 07:58:51;;;;;;;;;;;18.30;58.70;;;;;;5073910;28;19931;-57
2023/08/10 08:01:18;;;;;;;;;;;18.20;58.90;;;;;;5072114;28;19990;-54
2023/08/10 08:03:45;;;;;;;;;;;18.30;58.50;;;;;;5077612;28;20423;-52
2023/08/10 08:06:13;;;;;;;;;;;18.30;58.90;;;;;;5070621;28;19935;-56
2023/08/10 08:08:40;;;;;;;;;;;18.30;58.20;;;;;;5070237;28;20308;-57
2023/08/10 08:11:07;;;;;;;;;;;18.30;59.70;;;;;;5073160;28;20430;-58
2023/08/10 08:13:34;;;;;;;;;;;18.30;59.30;;;;;;5077493;28;20035;-56
2023/08/10 08:16:01;;;;;;;;;;;18.30;59.30;;;;;;5075266;28;19974;-57
2023/08/10 08:18:46;;;;;;;;;;;18.40;58.70;;;;;;5068005;28;20343;-56
2023/08/10 08:21:14;;;;;;;;;;;18.40;59.20;;;;;;5073663;28;19932;-55
2023/08/10 08:23:42;;;;;;;;;;;18.40;59.70;;;;;;5078377;28;19924;-56
2023/08/10 08:26:09;;;;;;;;;;;18.40;58.70;;;;;;5088371;28;19943;-56
2023/08/10 08:28:37;;;;;;;;;;;18.40;59.60;;;;;;5071111;28;20299;-56
2023/08/10 08:31:04;;;;;;;;;;;18.40;59.20;;;;;;5075807;28;19996;-54
2023/08/10 08:33:31;;;;;;;;;;;18.50;59.70;;;;;;5073805;28;19928;-59
2023/08/10 08:35:59;;;;;;;;;;;18.50;58.90;;;;;;5075529;28;20359;-59
2023/08/10 08:38:27;;;;;;;;;;;18.50;58.40;;;;;;5073679;28;19932;-55
2023/08/10 08:40:55;;;;;;;;;;;18.50;56.30;;;;;;5076172;28;20016;-57
2023/08/10 08:43:22;;;;;;;;;;;18.50;58.10;;;;;;5072616;28;19932;-58
2023/08/10 08:45:49;;;;;;;;;;;18.50;58.10;;;;;;5078611;28;19978;-58
2023/08/10 08:48:17;;;;;;;;;;;18.50;59.10;;;;;;5074687;28;19931;-58
2023/08/10 08:50:45;;;;;;;;;;;18.50;57.60;;;;;;5082853;28;19978;-58
2023/08/10 08:53:12;;;;;;;;;;;18.60;58.40;;;;;;5082872;28;19932;-59
2023/08/10 08:55:40;;;;;;;;;;;18.60;58.40;;;;;;5087023;28;19932;-58
2023/08/10 08:58:07;;;;;;;;;;;18.60;56.70;;;;;;5076321;28;20447;-58
2023/08/10 09:00:34;;;;;;;;;;;18.60;58.20;;;;;;5091397;28;19964;-57
2023/08/10 09:03:01;;;;;;;;;;;18.60;58.00;;;;;;5083611;28;19978;-58
2023/08/10 09:05:30;;;;;;;;;;;18.70;56.50;;;;;;5073861;28;19932;-58
2023/08/10 09:07:58;;;;;;;;;;;18.70;57.80;;;;;;5074659;28;20000;-57
2023/08/10 09:10:25;;;;;;;;;;;18.70;58.00;;;;;;5080475;28;19978;-56
2023/08/10 09:12:52;;;;;;;;;;;18.80;57.20;;;;;;5077727;28;20027;-56
2023/08/10 09:15:19;;;;;;;;;;;18.80;58.70;;;;;;5083464;28;20023;-56
2023/08/10 09:17:52;;;;;;;;;;;18.80;58.00;;;;;;5077108;28;20032;-56
2023/08/10 09:20:20;;;;;;;;;;;18.90;57.30;;;;;;5087177;28;20016;-57
2023/08/10 09:22:49;;;;;;;;;;;18.90;58.20;;;;;;5081405;28;19994;-55
2023/08/10 09:25:16;;;;;;;;;;;18.90;57.20;;;;;;5081177;28;20015;-57
2023/08/10 09:27:44;;;;;;;;;;;18.90;57.40;;;;;;5076543;28;19924;-56
2023/08/10 09:30:11;;;;;;;;;;;19.00;57.20;;;;;;5081643;28;20319;-56
2023/08/10 09:32:38;;;;;;;;;;;18.90;55.70;;;;;;5073463;28;20018;-57
2023/08/10 09:35:11;;;;;;;;;;;19.00;57.30;;;;;;5077173;28;19955;-59
2023/08/10 09:37:38;;;;;;;;;;;19.00;57.30;;;;;;5076902;28;19985;-57
2023/08/10 09:40:06;;;;;;;;;;;19.00;58.20;;;;;;5076289;28;20061;-57
2023/08/10 09:42:34;;;;;;;;;;;19.00;57.70;;;;;;5076654;28;19968;-57
2023/08/10 09:45:06;;;;;;;;;;;19.00;57.80;;;;;;5080386;28;20038;-57
2023/08/10 09:47:33;;;;;;;;;;;19.00;57.40;;;;;;5072481;28;20047;-57
2023/08/10 09:50:05;;;;;;;;;;;19.00;57.60;;;;;;5062219;28;19932;-60
2023/08/10 09:52:33;;;;;;;;;;;19.00;57.70;;;;;;5075447;28;20015;-58
2023/08/10 09:55:00;;;;;;;;;;;19.00;57.50;;;;;;5076967;28;19990;-57
2023/08/10 09:57:30;;;;;;;;;;;19.00;57.90;;;;;;5074797;28;20027;-58
2023/08/10 09:59:57;;;;;;;;;;;19.00;57.80;;;;;;5074174;28;19931;-57
2023/08/10 10:02:25;;;;;;;;;;;19.10;58.10;;;;;;5071323;28;19963;-58
2023/08/10 10:04:52;;;;;;;;;;;19.10;58.30;;;;;;5077295;28;19977;-57
2023/08/10 10:07:27;;;;;;;;;;;19.20;57.90;;;;;;5082636;28;19928;-59
2023/08/10 10:09:58;;;;;;;;;;;19.20;57.90;;;;;;5087387;28;19924;-58
2023/08/10 10:12:25;;;;;;;;;;;19.20;57.40;;;;;;5083199;28;19924;-58
2023/08/10 10:14:52;;;;;;;;;;;19.20;57.70;;;;;;5075589;28;19985;-58
2023/08/10 10:17:19;;;;;;;;;;;19.30;57.00;;;;;;5076852;28;19933;-59
2023/08/10 10:19:48;;;;;;;;;;;19.30;57.20;;;;;;5077583;28;19933;-58
2023/08/10 10:22:16;;;;;;;;;;;19.30;57.10;;;;;;5077438;28;20027;-59
2023/08/10 10:24:43;;;;;;;;;;;19.30;57.40;;;;;;5080429;28;20369;-56
2023/08/10 10:27:12;;;;;;;;;;;19.30;56.90;;;;;;5087723;28;20031;-57
2023/08/10 10:29:40;;;;;;;;;;;19.30;57.20;;;;;;5086680;28;19978;-58
2023/08/10 10:32:13;;;;;;;;;;;19.30;57.70;;;;;;5083695;28;19928;-58
2023/08/10 10:34:40;;;;;;;;;;;19.20;57.20;;;;;;5078465;28;20416;-58
2023/08/10 10:37:08;;;;;;;;;;;19.20;57.10;;;;;;5082379;28;19932;-58
2023/08/10 10:39:41;;;;;;;;;;;19.20;57.10;;;;;;5078493;28;19934;-58
2023/08/10 10:42:12;;;;;;;;;;;19.20;57.40;;;;;;5084679;28;20018;-59
2023/08/10 10:45:03;;;;;;;;;;;19.20;57.30;;;;;;5076733;28;19932;-59
2023/08/10 10:47:40;;;;;;;;;;;19.30;57.10;;;;;;5079512;28;19927;-59
2023/08/10 10:50:18;;;;;;;;;;;19.30;57.80;;;;;;5080254;28;20019;-59
2023/08/10 10:52:58;;;;;;;;;;;19.30;56.60;;;;;;5086436;28;19982;-60
2023/08/10 10:55:26;;;;;;;;;;;19.30;57.90;;;;;;5079382;28;20304;-60
2023/08/10 10:57:53;;;;;;;;;;;19.30;56.40;;;;;;5077289;28;20003;-60
2023/08/10 11:00:22;;;;;;;;;;;19.30;57.00;;;;;;5075176;28;19958;-59
2023/08/10 11:02:50;;;;;;;;;;;19.30;57.60;;;;;;5078239;28;20024;-59
2023/08/10 11:05:18;;;;;;;;;;;19.30;56.90;;;;;;5083254;28;19935;-58
2023/08/10 11:07:51;;;;;;;;;;;19.30;57.50;;;;;;5078422;28;20448;-58
2023/08/10 11:10:20;;;;;;;;;;;19.30;57.60;;;;;;5075192;28;19924;-59
2023/08/10 11:12:49;;;;;;;;;;;19.30;57.40;;;;;;5076540;28;19924;-56
2023/08/10 11:15:17;;;;;;;;;;;19.30;57.10;;;;;;5073532;28;20019;-58
2023/08/10 11:17:49;;;;;;;;;;;19.30;57.20;;;;;;5074465;28;19924;-60
2023/08/10 11:20:20;;;;;;;;;;;19.30;57.80;;;;;;5073304;28;20361;-59
2023/08/10 11:22:48;;;;;;;;;;;19.30;56.80;;;;;;5070523;28;20606;-59
2023/08/10 11:25:25;;;;;;;;;;;19.30;57.20;;;;;;5070397;28;21373;-60
2023/08/10 11:27:53;;;;;;;;;;;19.30;56.70;;;;;;5076734;28;19989;-59
2023/08/10 11:30:21;;;;;;;;;;;19.30;57.40;;;;;;5072660;28;19943;-60
2023/08/10 11:32:53;;;;;;;;;;;19.30;56.90;;;;;;5069028;28;19928;-59
2023/08/10 11:35:21;;;;;;;;;;;19.40;56.00;;;;;;5064632;28;19932;-58
2023/08/10 11:37:48;;;;;;;;;;;19.40;56.90;;;;;;5062002;28;19935;-60
2023/08/10 11:40:17;;;;;;;;;;;19.40;56.40;;;;;;5068228;28;19928;-56
2023/08/10 11:42:47;;;;;;;;;;;19.40;56.80;;;;;;5073313;28;19924;-56
2023/08/10 11:45:20;;;;;;;;;;;19.40;56.50;;;;;;5078098;28;19924;-55
2023/08/10 11:47:52;;;;;;;;;;;19.40;56.30;;;;;;5073039;28;19928;-55
2023/08/10 11:50:30;;;;;;;;;;;19.40;56.00;;;;;;5070897;28;19924;-54
2023/08/10 11:53:16;;;;;;;;;;;19.40;55.00;;;;;;5068419;28;19932;-55
2023/08/10 11:55:50;;;;;;;;;;;19.40;56.30;;;;;;5071943;28;20262;-57
2023/08/10 11:58:18;;;;;;;;;;;19.40;56.10;;;;;;5077484;28;19944;-57
2023/08/10 12:00:49;;;;;;;;;;;19.30;54.70;;;;;;5077686;28;20006;-56
2023/08/10 12:03:22;;;;;;;;;;;19.30;56.00;;;;;;5070677;28;19948;-56
2023/08/10 12:06:00;;;;;;;;;;;19.30;56.20;;;;;;5079621;28;19932;-55
2023/08/10 12:08:32;;;;;;;;;;;19.30;55.60;;;;;;5077251;28;19936;-56
2023/08/10 12:11:08;;;;;;;;;;;19.30;56.20;;;;;;5069701;28;19929;-56
2023/08/10 12:13:46;;;;;;;;;;;19.30;56.20;;;;;;5076451;28;20454;-58
2023/08/10 12:16:16;;;;;;;;;;;19.30;56.50;;;;;;5092771;28;19924;-56
2023/08/10 12:18:44;;;;;;;;;;;19.30;56.40;;;;;;5081899;28;19931;-56
2023/08/10 12:21:11;;;;;;;;;;;19.30;56.30;;;;;;5091116;28;20015;-56
2023/08/10 12:23:39;;;;;;;;;;;19.30;56.20;;;;;;5082286;28;19967;-56
2023/08/10 12:26:06;;;;;;;;;;;19.30;56.20;;;;;;5076886;28;19969;-58
2023/08/10 12:28:33;;;;;;;;;;;19.40;55.40;;;;;;5080544;28;19924;-57
2023/08/10 12:31:04;;;;;;;;;;;19.40;55.90;;;;;;5083298;28;19932;-54
2023/08/10 12:33:31;;;;;;;;;;;19.40;55.80;;;;;;5076877;28;19963;-58
2023/08/10 12:35:59;;;;;;;;;;;19.40;55.80;;;;;;5076567;28;19929;-58
2023/08/10 12:38:26;;;;;;;;;;;19.40;56.00;;;;;;5072247;28;20426;-58
2023/08/10 12:40:54;;;;;;;;;;;19.40;56.00;;;;;;5070659;28;19925;-58
2023/08/10 12:43:22;;;;;;;;;;;19.40;55.30;;;;;;5080133;28;20906;-59
2023/08/10 12:45:49;;;;;;;;;;;19.40;55.20;;;;;;5072156;28;19970;-56
2023/08/10 12:48:17;;;;;;;;;;;19.40;55.50;;;;;;5074868;28;19932;-59
2023/08/10 12:50:44;;;;;;;;;;;19.40;55.30;;;;;;5070206;28;20373;-59
2023/08/10 12:53:11;;;;;;;;;;;19.40;54.70;;;;;;5078975;28;19939;-59
2023/08/10 12:55:38;;;;;;;;;;;19.40;55.50;;;;;;5079143;28;19932;-60
2023/08/10 12:58:07;;;;;;;;;;;19.40;55.50;;;;;;5081620;28;20401;-59
2023/08/10 13:00:35;;;;;;;;;;;19.40;55.50;;;;;;5074419;28;19967;-58
2023/08/10 13:03:02;;;;;;;;;;;19.40;55.10;;;;;;5078415;28;20410;-56
2023/08/10 13:05:29;;;;;;;;;;;19.40;54.80;;;;;;5077507;28;19932;-54
2023/08/10 13:07:56;;;;;;;;;;;19.50;55.30;;;;;;5078370;28;20307;-56
2023/08/10 13:10:23;;;;;;;;;;;19.40;55.40;;;;;;5077070;28;19929;-56
2023/08/10 13:12:51;;;;;;;;;;;19.50;55.70;;;;;;5078382;28;19971;-57
2023/08/10 13:15:19;;;;;;;;;;;19.50;55.60;;;;;;5071835;28;19924;-57
2023/08/10 13:17:46;;;;;;;;;;;19.50;55.10;;;;;;5080121;28;19962;-58
2023/08/10 13:20:13;;;;;;;;;;;19.50;55.70;;;;;;5076346;28;19931;-55
2023/08/10 13:22:40;;;;;;;;;;;19.50;55.60;;;;;;5074815;28;19978;-55
2023/08/10 13:25:07;;;;;;;;;;;19.50;55.70;;;;;;5071803;28;19963;-56
2023/08/10 13:27:34;;;;;;;;;;;19.50;55.80;;;;;;5070357;28;19929;-56
2023/08/10 13:30:01;;;;;;;;;;;19.50;55.10;;;;;;5077961;28;20373;-57
2023/08/10 13:32:29;;;;;;;;;;;19.50;55.40;;;;;;5077806;28;20010;-55
2023/08/10 13:34:56;;;;;;;;;;;19.60;55.60;;;;;;5078433;28;19925;-56
2023/08/10 13:37:23;;;;;;;;;;;19.60;55.20;;;;;;5076586;28;19936;-55
2023/08/10 13:39:53;;;;;;;;;;;19.60;55.30;;;;;;5076384;28;19932;-57
2023/08/10 13:42:20;;;;;;;;;;;19.60;55.30;;;;;;5072643;28;19974;-56
2023/08/10 13:44:47;;;;;;;;;;;19.60;55.30;;;;;;5077278;28;20007;-56
2023/08/10 13:47:14;;;;;;;;;;;19.60;55.10;;;;;;5078097;28;20331;-55
2023/08/10 13:49:44;;;;;;;;;;;19.60;54.70;;;;;;5082206;28;20007;-55
2023/08/10 13:52:22;;;;;;;;;;;19.60;55.10;;;;;;5076799;28;19924;-55
2023/08/10 13:54:50;;;;;;;;;;;19.60;54.70;;;;;;5072536;28;20005;-54
2023/08/10 13:57:17;;;;;;;;;;;19.60;54.80;;;;;;5077361;28;19931;-58
2023/08/10 13:59:46;;;;;;;;;;;19.60;55.00;;;;;;5078067;28;19932;-58
2023/08/10 14:02:14;;;;;;;;;;;19.60;54.90;;;;;;5073644;28;19924;-58
2023/08/10 14:04:42;;;;;;;;;;;19.60;57.70;;;;;;5079369;28;19979;-59
2023/08/10 14:07:09;;;;;;;;;;;19.70;66.50;;;;;;5077772;28;19987;-59
2023/08/10 14:09:35;;;;;;;;;;;20.00;70.40;;;;;;5076789;28;19931;-58
2023/08/10 14:12:04;;;;;;;;;;;20.20;71.70;;;;;;5081001;28;19974;-59
2023/08/10 14:14:32;;;;;;;;;;;20.50;71.90;;;;;;5082494;28;19932;-58
2023/08/10 14:16:59;;;;;;;;;;;20.80;71.70;;;;;;5078267;28;19977;-58
2023/08/10 14:19:26;;;;;;;;;;;21.10;71.50;;;;;;5078387;28;19943;-58
2023/08/10 14:21:53;;;;;;;;;;;21.30;71.20;;;;;;5076860;28;19932;-60